Time;durP1;ratioP1;P1;durP2;ratioP2;P2;SDS_P1;SDS_P2;PMS_P1;PMS_P2;Temp;Humidity;BMP_temperature;BMP_pressure;BME280_temperature;BME280_humidity;BME280_pressure;Samples;Min_cycle;Max_cycle;Signal;HPM_P1;HPM_P2
2023/05/15 00:02:17;;;;;;;5.90;3.50;;;;;;;15.17;48.20;100220.46;102912;275;114008;-54
2023/05/15 00:04:59;;;;;;;7.00;3.30;;;;;;;15.17;48.18;100221.34;102878;275;94451;-53
2023/05/15 00:07:38;;;;;;;4.50;3.30;;;;;;;15.16;48.18;100214.98;102882;275;96705;-54
2023/05/15 00:10:14;;;;;;;4.90;3.40;;;;;;;15.16;48.07;100214.30;102872;275;120121;-54
2023/05/15 00:12:52;;;;;;;5.30;3.20;;;;;;;15.18;47.99;100210.23;102952;275;105378;-53
2023/05/15 00:15:33;;;;;;;5.20;3.20;;;;;;;15.18;47.95;100208.05;102896;275;114276;-54
2023/05/15 00:18:10;;;;;;;6.50;3.70;;;;;;;15.20;47.89;100207.23;102901;275;94874;-53
2023/05/15 00:20:57;;;;;;;4.90;3.50;;;;;;;15.21;47.93;100203.08;102838;275;98425;-55
2023/05/15 00:23:42;;;;;;;8.10;4.40;;;;;;;15.20;47.80;100197.98;102848;275;117221;-54
2023/05/15 00:26:30;;;;;;;7.10;3.40;;;;;;;15.19;47.67;100195.39;102887;275;105456;-55
2023/05/15 00:29:17;;;;;;;7.00;3.50;;;;;;;15.19;47.78;100192.73;102865;275;114311;-57
2023/05/15 00:31:59;;;;;;;6.60;3.40;;;;;;;15.20;47.63;100187.44;102882;275;94050;-56
2023/05/15 00:34:34;;;;;;;3.90;2.90;;;;;;;15.20;47.56;100184.20;102897;275;96443;-56
2023/05/15 00:37:09;;;;;;;;;;;;;;;15.19;47.48;100179.02;102907;275;117234;-57
2023/05/15 00:39:47;;;;;;;5.20;3.00;;;;;;;15.19;47.61;100176.08;102898;275;105339;-56
2023/05/15 00:42:26;;;;;;;5.10;3.60;;;;;;;15.18;47.65;100169.96;102686;277;114484;-57
2023/05/15 00:45:08;;;;;;;5.30;3.20;;;;;;;15.17;47.52;100166.66;102935;275;95598;-57
2023/05/15 00:47:54;;;;;;;5.90;3.90;;;;;;;15.16;47.54;100167.81;102936;275;96477;-57
2023/05/15 00:50:35;;;;;;;4.50;3.30;;;;;;;15.13;47.50;100162.94;102908;275;118946;-53
2023/05/15 00:53:17;;;;;;;6.10;3.10;;;;;;;15.11;47.47;100156.84;102941;275;105774;-53
2023/05/15 00:56:05;;;;;;;5.00;3.00;;;;;;;15.09;47.45;100153.34;102876;275;115176;-56
2023/05/15 00:58:52;;;;;;;5.50;3.40;;;;;;;15.08;47.46;100155.38;102756;275;94388;-53
2023/05/15 01:01:32;;;;;;;6.10;2.90;;;;;;;15.05;47.54;100166.78;102985;275;98075;-53
2023/05/15 01:04:10;;;;;;;3.70;3.00;;;;;;;15.04;47.41;100176.12;102921;275;118214;-56
2023/05/15 01:06:53;;;;;;;4.80;3.00;;;;;;;15.04;47.50;100178.59;102916;275;105323;-57
2023/05/15 01:09:39;;;;;;;6.30;3.40;;;;;;;15.03;47.63;100175.83;102897;275;114276;-54
2023/05/15 01:12:27;;;;;;;6.20;3.40;;;;;;;15.03;47.57;100167.23;102910;275;94250;-53
2023/05/15 01:15:07;;;;;;;4.30;3.20;;;;;;;15.03;47.57;100155.96;102904;275;97823;-53
2023/05/15 01:17:49;;;;;;;5.80;3.00;;;;;;;15.04;47.42;100154.70;102897;268;115844;-53
2023/05/15 01:20:29;;;;;;;4.80;2.90;;;;;;;15.04;47.36;100151.39;102872;275;105423;-54
2023/05/15 01:23:25;;;;;;;4.80;3.10;;;;;;;15.05;47.30;100153.25;102845;275;113006;-54
2023/05/15 01:26:31;;;;;;;6.50;3.20;;;;;;;15.03;47.42;100153.91;102869;275;95025;-56
2023/05/15 01:29:17;;;;;;;4.50;3.00;;;;;;;15.02;47.46;100144.96;102859;275;97499;-54
2023/05/15 01:32:01;;;;;;;3.80;3.30;;;;;;;15.03;47.50;100131.55;102825;275;118171;-56
2023/05/15 01:34:49;;;;;;;3.80;3.30;;;;;;;15.03;47.38;100120.55;102912;275;105385;-56
2023/05/15 01:37:41;;;;;;;7.30;4.00;;;;;;;15.04;47.43;100120.80;102894;275;114095;-56
2023/05/15 01:40:24;;;;;;;8.20;3.00;;;;;;;15.05;47.42;100118.27;102892;275;92411;-56
2023/05/15 01:43:08;;;;;;;7.60;3.70;;;;;;;15.06;47.28;100119.92;102900;275;97793;-56
2023/05/15 01:45:48;;;;;;;6.70;3.40;;;;;;;15.05;47.32;100121.54;102865;275;119425;-53
2023/05/15 01:48:33;;;;;;;4.30;3.00;;;;;;;15.03;47.30;100115.86;102937;275;106112;-54
2023/05/15 01:51:13;;;;;;;4.90;3.00;;;;;;;15.02;47.37;100112.70;102934;275;113443;-53
2023/05/15 01:53:52;;;;;;;5.90;3.10;;;;;;;15.04;47.30;100108.23;102905;275;94026;-53
2023/05/15 01:56:29;;;;;;;3.80;3.20;;;;;;;15.04;47.28;100102.25;102927;275;97760;-53
2023/05/15 01:59:14;;;;;;;5.50;3.90;;;;;;;15.06;47.27;100103.66;102901;275;117896;-53
2023/05/15 02:01:52;;;;;;;5.00;2.90;;;;;;;15.07;47.22;100098.25;102718;275;105948;-53
2023/05/15 02:04:29;;;;;;;3.60;2.70;;;;;;;15.06;47.31;100095.95;102706;276;114576;-57
2023/05/15 02:07:06;;;;;;;6.70;3.10;;;;;;;15.05;47.32;100095.04;102734;276;94783;-57
2023/05/15 02:09:54;;;;;;;4.60;3.50;;;;;;;15.07;47.11;100099.84;102774;276;97894;-57
2023/05/15 02:12:33;;;;;;;;;;;;;;;15.05;47.27;100106.21;102761;277;119614;-55
2023/05/15 02:15:13;;;;;;;6.20;3.00;;;;;;;15.04;47.32;100106.94;102739;277;105778;-56
2023/05/15 02:17:47;;;;;;;3.80;3.20;;;;;;;15.05;47.27;100102.63;102715;277;114745;-57
2023/05/15 02:20:34;;;;;;;3.70;2.90;;;;;;;15.06;47.06;100097.84;102721;277;94678;-57
2023/05/15 02:23:10;;;;;;;5.90;2.90;;;;;;;15.06;47.32;100089.09;102763;277;98115;-55
2023/05/15 02:26:03;;;;;;;5.00;3.50;;;;;;;15.06;47.27;100085.20;102766;277;119292;-56
2023/05/15 02:28:48;;;;;;;5.10;3.00;;;;;;;15.07;47.05;100082.88;102762;277;107013;-54
2023/05/15 02:31:32;;;;;;;5.10;3.30;;;;;;;15.07;47.20;100079.33;102798;276;113612;-53
2023/05/15 02:34:20;;;;;;;4.40;2.70;;;;;;;15.06;47.14;100076.40;102778;277;93400;-56
2023/05/15 02:37:10;;;;;;;7.80;2.70;;;;;;;15.07;47.28;100075.35;102791;277;96586;-57
2023/05/15 02:39:58;;;;;;;3.70;2.90;;;;;;;15.07;47.35;100066.77;102768;265;118962;-56
2023/05/15 02:42:44;;;;;;;8.80;3.70;;;;;;;15.10;47.30;100064.06;102789;276;105369;-56
2023/05/15 02:45:24;;;;;;;3.30;2.30;;;;;;;15.11;47.16;100050.73;102780;277;114510;-57
2023/05/15 02:48:05;;;;;;;5.30;3.10;;;;;;;15.16;47.05;100044.98;102718;277;92856;-55
2023/05/15 02:50:46;;;;;;;5.00;3.10;;;;;;;15.17;47.44;100045.93;102759;277;97927;-56
2023/05/15 02:56:19;;;;;;;5.10;3.30;;;;;;;15.18;47.12;100035.24;102742;277;103532;-53
2023/05/15 02:59:00;;;;;;;5.10;3.40;;;;;;;15.17;47.25;100029.14;102736;277;113854;-57
2023/05/15 03:01:40;;;;;;;8.10;3.40;;;;;;;15.18;47.11;100025.75;102728;277;93226;-56
2023/05/15 03:04:19;;;;;;;7.10;3.00;;;;;;;15.18;47.25;100024.32;102768;277;96684;-54
2023/05/15 03:07:00;;;;;;;5.40;3.10;;;;;;;15.17;47.20;100020.23;102735;277;119666;-54
2023/05/15 03:09:42;;;;;;;3.90;2.70;;;;;;;15.17;47.36;100023.24;102749;277;106057;-53
2023/05/15 03:12:21;;;;;;;5.40;2.90;;;;;;;15.16;47.22;100019.95;102762;276;113273;-53
2023/05/15 03:15:05;;;;;;;4.80;3.00;;;;;;;15.15;47.31;100010.45;102781;277;95319;-56
2023/05/15 03:17:43;;;;;;;5.60;3.00;;;;;;;15.13;47.43;100002.35;102745;277;96463;-56
2023/05/15 03:20:28;;;;;;;3.90;2.90;;;;;;;15.12;47.49;99997.64;102582;279;119027;-53
2023/05/15 03:23:12;;;;;;;7.30;3.20;;;;;;;15.12;47.36;99993.24;102748;277;105953;-53
2023/05/15 03:25:53;;;;;;;5.20;2.70;;;;;;;15.14;47.38;99991.89;102771;277;115074;-56
2023/05/15 03:28:33;;;;;;;3.80;2.70;;;;;;;15.15;47.35;99983.84;102727;277;95062;-57
2023/05/15 03:31:20;;;;;;;5.50;3.20;;;;;;;15.15;47.50;99976.73;102734;277;97072;-53
2023/05/15 03:34:01;;;;;;;4.60;2.90;;;;;;;15.15;47.45;99975.52;102753;277;118181;-56
2023/05/15 03:36:43;;;;;;;6.00;3.10;;;;;;;15.13;47.47;99978.63;102761;277;105985;-57
2023/05/15 03:39:27;;;;;;;3.90;2.90;;;;;;;15.11;47.67;99979.83;102731;277;114960;-56
2023/05/15 03:42:05;;;;;;;7.30;3.30;;;;;;;15.09;47.81;99975.09;102736;276;95520;-56
2023/05/15 03:44:46;;;;;;;5.10;3.10;;;;;;;15.05;48.03;99973.38;102738;277;97951;-57
2023/05/15 03:47:28;;;;;;;5.50;3.20;;;;;;;15.02;48.05;99968.02;102735;277;119494;-56
2023/05/15 03:50:08;;;;;;;7.70;3.30;;;;;;;14.98;48.03;99964.64;102760;277;105782;-54
2023/05/15 03:52:53;;;;;;;4.50;3.20;;;;;;;14.97;48.05;99964.77;102719;277;114562;-53
2023/05/15 03:55:35;;;;;;;3.70;2.70;;;;;;;14.95;48.16;99956.88;102717;277;95561;-56
2023/05/15 03:58:12;;;;;;;8.30;3.40;;;;;;;14.94;48.10;99956.11;102739;277;97419;-56
2023/05/15 04:00:49;;;;;;;5.40;3.30;;;;;;;14.93;48.37;99950.50;102757;277;119497;-56
2023/05/15 04:03:27;;;;;;;5.40;3.30;;;;;;;14.93;48.22;99949.96;102716;277;104066;-54
2023/05/15 04:06:04;;;;;;;5.50;3.50;;;;;;;14.93;48.63;99962.65;102745;277;115587;-57
2023/05/15 04:08:43;;;;;;;4.70;3.20;;;;;;;14.92;48.52;99957.50;102770;277;94134;-53
2023/05/15 04:11:24;;;;;;;4.40;3.10;;;;;;;14.92;48.51;99951.14;102783;277;97188;-53
2023/05/15 04:14:09;;;;;;;6.10;3.40;;;;;;;14.93;48.51;99954.11;102765;277;119639;-54
2023/05/15 04:16:53;;;;;;;5.20;2.90;;;;;;;14.93;48.57;99941.80;102797;277;106332;-51
2023/05/15 04:19:40;;;;;;;7.10;3.10;;;;;;;14.93;48.69;99941.69;102576;279;113606;-57
2023/05/15 04:22:24;;;;;;;4.90;3.20;;;;;;;14.91;48.81;99927.35;102549;278;94947;-57
2023/05/15 04:25:04;;;;;;;7.20;3.60;;;;;;;14.90;48.97;99929.71;102789;277;97650;-53
2023/05/15 04:27:41;;;;;;;6.50;3.80;;;;;;;14.90;49.13;99925.45;102591;279;118364;-53
2023/05/15 04:30:16;;;;;;;6.50;3.70;;;;;;;14.89;49.26;99922.16;102802;276;105775;-53
2023/05/15 04:33:01;;;;;;;5.50;3.40;;;;;;;14.88;49.32;99913.97;102751;277;114528;-53
2023/05/15 04:35:42;;;;;;;8.50;3.40;;;;;;;14.87;49.56;99912.92;102786;276;93028;-54
2023/05/15 04:38:20;;;;;;;6.50;3.70;;;;;;;14.86;49.64;99906.20;102777;277;98282;-54
2023/05/15 04:41:01;;;;;;;6.80;4.00;;;;;;;14.85;50.02;99906.67;102759;277;119113;-56
2023/05/15 04:43:36;;;;;;;7.40;3.40;;;;;;;14.86;49.87;99903.53;102769;300;105288;-52
2023/05/15 04:46:22;;;;;;;8.30;3.40;;;;;;;14.86;49.95;99905.77;102757;277;114777;-57
2023/05/15 04:49:05;;;;;;;6.00;3.30;;;;;;;14.88;50.13;99909.23;102503;277;92906;-56
2023/05/15 04:51:44;;;;;;;9.80;5.00;;;;;;;14.89;50.23;99903.41;102761;276;97286;-57
2023/05/15 04:54:22;;;;;;;6.80;3.90;;;;;;;14.91;50.20;99900.62;102774;277;119884;-54
2023/05/15 04:56:58;;;;;;;6.40;3.20;;;;;;;14.92;50.21;99904.48;102769;277;106127;-54
2023/05/15 04:59:39;;;;;;;6.20;3.50;;;;;;;14.91;50.39;99899.36;102776;277;114804;-53
2023/05/15 05:02:20;;;;;;;5.20;3.50;;;;;;;14.91;50.51;99899.33;102748;277;92605;-54
2023/05/15 05:05:02;;;;;;;8.30;3.30;;;;;;;14.91;50.86;99895.18;102743;277;99626;-57
2023/05/15 05:07:47;;;;;;;8.40;3.90;;;;;;;14.91;51.25;99896.27;102741;277;119154;-56
2023/05/15 05:10:30;;;;;;;10.20;3.80;;;;;;;14.88;51.67;99894.51;102788;277;105724;-56
2023/05/15 05:13:08;;;;;;;7.70;4.00;;;;;;;14.88;52.59;99889.49;102790;277;113465;-56
2023/05/15 05:15:46;;;;;;;5.30;3.60;;;;;;;14.86;52.68;99894.57;102739;277;93661;-57
2023/05/15 05:18:27;;;;;;;9.50;4.10;;;;;;;14.86;53.53;99888.79;102582;277;96792;-56
2023/05/15 05:21:07;;;;;;;7.90;4.20;;;;;;;14.81;54.56;99877.39;102773;277;120069;-54
2023/05/15 05:23:48;;;;;;;9.60;3.80;;;;;;;14.77;54.64;99868.64;102771;277;106225;-54
2023/05/15 05:26:29;;;;;;;9.20;4.20;;;;;;;14.73;54.30;99866.63;102749;277;114653;-53
2023/05/15 05:29:09;;;;;;;8.00;3.90;;;;;;;14.72;54.07;99862.91;102743;277;93539;-56
2023/05/15 05:31:54;;;;;;;6.50;4.10;;;;;;;14.72;54.23;99864.42;102748;277;97388;-57
2023/05/15 05:34:36;;;;;;;6.60;3.60;;;;;;;14.72;54.44;99864.21;102788;277;120266;-56
2023/05/15 05:37:18;;;;;;;6.40;3.60;;;;;;;14.75;54.81;99860.86;102775;277;104404;-55
2023/05/15 05:40:04;;;;;;;;;;;;;;;14.77;55.19;99856.95;102720;276;114473;-55
2023/05/15 05:42:51;;;;;;;8.30;3.90;;;;;;;14.80;55.16;99853.82;102757;277;94520;-56
2023/05/15 05:45:38;;;;;;;9.00;5.00;;;;;;;14.85;55.59;99852.38;102739;277;97620;-56
2023/05/15 05:48:20;;;;;;;6.90;4.10;;;;;;;14.89;55.90;99850.15;102281;277;542118;-56
2023/05/15 05:51:07;;;;;;;7.50;3.60;;;;;;;14.94;55.82;99850.77;102668;277;104529;-53
2023/05/15 05:53:48;;;;;;;7.90;3.80;;;;;;;14.99;56.03;99850.11;102745;277;114737;-53
2023/05/15 05:56:30;;;;;;;6.60;3.80;;;;;;;15.12;56.43;99849.46;102781;277;94278;-52
2023/05/15 05:59:12;;;;;;;7.40;4.10;;;;;;;15.26;56.72;99855.06;102779;277;98188;-53
2023/05/15 06:01:52;;;;;;;7.10;3.70;;;;;;;15.36;56.37;99847.10;102786;276;119836;-53
2023/05/15 06:04:32;;;;;;;7.40;3.50;;;;;;;15.45;56.05;99849.41;102806;277;105449;-57
2023/05/15 06:07:15;;;;;;;7.20;3.60;;;;;;;15.52;55.49;99853.73;102827;277;114817;-56
2023/05/15 06:10:02;;;;;;;7.70;3.60;;;;;;;15.54;54.60;99858.04;102786;277;93830;-53
2023/05/15 06:12:44;;;;;;;4.80;3.40;;;;;;;15.56;54.31;99858.02;102777;277;97272;-53
2023/05/15 06:15:26;;;;;;;4.00;3.40;;;;;;;15.58;54.10;99862.05;102729;277;119680;-53
2023/05/15 06:18:09;;;;;;;6.20;3.30;;;;;;;15.56;53.72;99867.55;102787;276;104951;-53
2023/05/15 06:20:57;;;;;;;6.60;3.30;;;;;;;15.50;53.69;99866.83;102748;277;114077;-53
2023/05/15 06:23:39;;;;;;;5.80;3.10;;;;;;;15.46;53.67;99867.13;102768;277;95118;-54
2023/05/15 06:26:17;;;;;;;7.20;4.30;;;;;;;15.39;53.99;99870.65;102763;277;97972;-56
2023/05/15 06:29:01;;;;;;;4.40;3.10;;;;;;;15.32;54.10;99871.84;102763;277;119928;-51
2023/05/15 06:31:37;;;;;;;4.50;3.20;;;;;;;15.28;54.41;99875.90;102745;277;104336;-53
2023/05/15 06:34:18;;;;;;;5.10;3.40;;;;;;;15.24;55.07;99878.08;102767;277;112828;-52
2023/05/15 06:37:01;;;;;;;5.30;3.50;;;;;;;15.12;55.34;99880.53;102742;277;95256;-52
2023/05/15 06:39:39;;;;;;;5.10;3.70;;;;;;;15.01;55.99;99884.48;102784;277;98199;-55
2023/05/15 06:42:24;;;;;;;5.60;3.80;;;;;;;14.90;56.81;99888.02;102730;277;120484;-55
2023/05/15 06:45:01;;;;;;;5.00;3.40;;;;;;;14.78;57.53;99887.83;102779;277;106509;-57
2023/05/15 06:47:38;;;;;;;8.90;4.20;;;;;;;14.67;58.02;99882.89;102756;277;112542;-58
2023/05/15 06:50:14;;;;;;;7.60;4.20;;;;;;;14.59;58.92;99886.34;102746;277;94640;-54
2023/05/15 06:52:53;;;;;;;4.30;3.90;;;;;;;14.49;59.49;99888.21;102836;277;97443;-53
2023/05/15 06:55:35;;;;;;;6.90;4.20;;;;;;;14.37;60.05;99886.17;102764;277;118800;-53
2023/05/15 06:58:16;;;;;;;6.80;4.50;;;;;;;14.29;61.17;99884.70;102719;277;104416;-54
2023/05/15 07:01:02;;;;;;;7.90;4.40;;;;;;;14.17;61.53;99879.18;102745;277;114653;-59
2023/05/15 07:03:41;;;;;;;7.50;4.20;;;;;;;14.11;62.29;99876.44;102770;277;96742;-54
2023/05/15 07:06:21;;;;;;;6.40;4.50;;;;;;;14.07;62.64;99878.94;102749;277;97576;-54
2023/05/15 07:09:00;;;;;;;7.00;4.20;;;;;;;14.03;62.98;99872.98;102753;277;118890;-54
2023/05/15 07:11:38;;;;;;;6.60;4.30;;;;;;;14.02;63.19;99874.70;102763;277;103242;-55
2023/05/15 07:14:26;;;;;;;7.30;4.40;;;;;;;14.02;63.73;99879.04;102714;277;113970;-59
2023/05/15 07:17:07;;;;;;;7.00;4.50;;;;;;;14.00;63.95;99879.77;102739;276;94474;-59
2023/05/15 07:19:47;;;;;;;8.10;5.00;;;;;;;13.96;64.13;99878.02;102796;277;98170;-59
2023/05/15 07:22:23;;;;;;;6.00;5.10;;;;;;;13.93;64.77;99876.20;102774;277;120052;-57
2023/05/15 07:25:05;;;;;;;7.20;4.70;;;;;;;13.91;65.19;99871.30;102715;277;105769;-55
2023/05/15 07:27:42;;;;;;;7.00;4.70;;;;;;;13.93;65.53;99872.56;102749;277;113325;-55
2023/05/15 07:30:18;;;;;;;6.10;4.80;;;;;;;13.95;65.57;99867.25;102767;277;94893;-59
2023/05/15 07:33:01;;;;;;;6.80;4.60;;;;;;;13.96;65.83;99872.66;102768;277;98442;-61
2023/05/15 07:35:37;;;;;;;7.80;5.40;;;;;;;13.98;66.08;99872.45;102748;277;119773;-56
2023/05/15 07:38:21;;;;;;;8.80;5.10;;;;;;;14.06;66.18;99872.20;102745;277;106096;-57
2023/05/15 07:40:58;;;;;;;6.30;4.70;;;;;;;14.11;66.86;99869.50;102799;277;112574;-57
2023/05/15 07:43:40;;;;;;;7.60;6.10;;;;;;;14.18;66.42;99866.02;102729;276;96665;-57
2023/05/15 07:46:18;;;;;;;7.70;4.80;;;;;;;14.16;66.65;99865.73;102774;277;96997;-56
2023/05/15 07:48:58;;;;;;;7.60;5.90;;;;;;;14.14;66.86;99865.08;102762;277;120460;-58
2023/05/15 07:51:39;;;;;;;6.30;5.60;;;;;;;14.19;66.87;99868.49;102788;277;103309;-58
2023/05/15 07:54:22;;;;;;;5.50;4.90;;;;;;;14.23;67.00;99862.48;102764;277;114254;-56
2023/05/15 07:57:05;;;;;;;6.90;4.80;;;;;;;14.31;67.19;99859.23;102765;277;97374;-54
2023/05/15 07:59:46;;;;;;;5.70;4.90;;;;;;;14.32;67.41;99855.38;102533;277;96932;-55
2023/05/15 08:02:28;;;;;;;6.30;5.40;;;;;;;14.45;67.39;99852.94;102732;277;119725;-55
2023/05/15 08:05:12;;;;;;;5.10;4.60;;;;;;;14.51;67.57;99850.52;102786;277;105473;-55
2023/05/15 08:07:51;;;;;;;7.20;5.00;;;;;;;14.59;67.86;99840.34;102735;265;113397;-54
2023/05/15 08:10:36;;;;;;;5.90;4.90;;;;;;;14.73;67.64;99839.55;102765;277;94540;-55
2023/05/15 08:13:15;;;;;;;6.70;5.40;;;;;;;14.84;67.70;99837.11;102695;277;97759;-55
2023/05/15 08:15:53;;;;;;;6.50;5.10;;;;;;;14.85;67.74;99832.47;102753;277;118383;-58
2023/05/15 08:18:29;;;;;;;7.80;5.20;;;;;;;14.76;67.48;99836.22;102763;277;106163;-58
2023/05/15 08:21:07;;;;;;;5.80;5.20;;;;;;;14.71;67.59;99822.52;102775;277;115341;-54
2023/05/15 08:23:54;;;;;;;7.10;5.20;;;;;;;14.70;67.71;99818.52;102783;277;97183;-57
2023/05/15 08:26:30;;;;;;;7.60;5.50;;;;;;;14.68;67.78;99818.27;102814;277;97030;-57
2023/05/15 08:29:09;;;;;;;7.20;5.50;;;;;;;14.72;68.13;99814.61;102791;276;119551;-54
2023/05/15 08:31:53;;;;;;;8.00;5.40;;;;;;;14.73;68.61;99813.00;102610;277;105861;-55
2023/05/15 08:34:33;;;;;;;9.80;6.10;;;;;;;14.75;68.45;99812.59;102805;277;113939;-53
2023/05/15 08:37:09;;;;;;;8.60;5.40;;;;;;;14.75;68.69;99814.06;102775;277;95520;-54
2023/05/15 08:39:46;;;;;;;6.30;5.00;;;;;;;14.67;68.73;99817.68;102592;277;97681;-55
2023/05/15 08:42:30;;;;;;;7.40;5.80;;;;;;;14.65;69.11;99816.45;102770;277;120108;-54
2023/05/15 08:45:12;;;;;;;7.90;5.70;;;;;;;14.49;69.44;99808.59;102568;277;107226;-57
2023/05/15 08:47:47;;;;;;;12.90;6.40;;;;;;;14.53;69.47;99799.39;102715;277;114052;-57
2023/05/15 08:50:30;;;;;;;6.70;5.50;;;;;;;14.52;69.52;99798.05;102749;277;94511;-57
2023/05/15 08:53:08;;;;;;;7.70;6.10;;;;;;;14.52;69.60;99799.06;102732;277;96870;-58
2023/05/15 08:55:48;;;;;;;8.20;5.70;;;;;;;14.54;69.49;99789.85;102780;277;120497;-57
2023/05/15 08:58:30;;;;;;;7.10;5.80;;;;;;;14.49;69.49;99790.11;102741;277;103881;-57
2023/05/15 09:01:11;;;;;;;8.70;5.60;;;;;;;14.51;69.69;99786.08;102527;277;113591;-57
2023/05/15 09:03:48;;;;;;;7.50;6.10;;;;;;;14.44;69.82;99783.75;102774;277;93826;-57
2023/05/15 09:06:26;;;;;;;6.60;5.70;;;;;;;14.39;70.02;99785.52;102757;277;98161;-58
2023/05/15 09:09:04;;;;;;;7.80;5.80;;;;;;;14.34;70.00;99786.11;102741;277;120423;-59
2023/05/15 09:11:46;;;;;;;6.20;5.60;;;;;;;14.28;70.47;99795.43;102739;277;104361;-59
2023/05/15 09:14:29;;;;;;;6.70;6.00;;;;;;;14.24;70.59;99800.83;102722;276;114405;-57
2023/05/15 09:17:11;;;;;;;6.40;5.40;;;;;;;14.18;71.47;99808.38;102755;277;96370;-56
2023/05/15 09:19:53;;;;;;;6.90;5.50;;;;;;;14.14;71.25;99811.16;102848;277;98704;-61
2023/05/15 09:22:38;;;;;;;6.50;5.40;;;;;;;14.23;71.38;99820.73;102616;277;118706;-56
2023/05/15 09:25:37;;;;;;;6.80;5.70;;;;;;;14.27;71.38;99815.78;102708;277;104224;-56
2023/05/15 09:28:28;;;;;;;10.90;6.30;;;;;;;14.44;71.42;99806.88;102760;277;113868;-60
2023/05/15 09:31:10;;;;;;;12.30;6.50;;;;;;;14.56;71.66;99793.40;102765;277;96297;-56
2023/05/15 09:33:58;;;;;;;9.60;6.10;;;;;;;14.66;71.93;99790.80;102733;277;97688;-58
2023/05/15 09:36:47;;;;;;;9.00;6.30;;;;;;;14.70;71.85;99781.34;102763;277;119785;-58
2023/05/15 09:39:29;;;;;;;7.20;6.30;;;;;;;14.65;72.14;99785.88;102744;277;103615;-55
2023/05/15 09:42:21;;;;;;;7.90;6.20;;;;;;;14.70;72.39;99777.11;102758;277;114763;-56
2023/05/15 09:45:05;;;;;;;10.20;6.80;;;;;;;14.67;72.29;99775.95;102698;277;97135;-60
2023/05/15 09:47:46;;;;;;;6.60;5.50;;;;;;;14.64;72.56;99772.14;102749;277;96642;-59
2023/05/15 09:50:36;;;;;;;7.80;6.30;;;;;;;14.45;73.36;99771.02;102735;265;118955;-55
2023/05/15 09:53:13;;;;;;;7.20;5.90;;;;;;;14.42;73.13;99770.61;102748;277;103749;-55
2023/05/15 09:55:55;;;;;;;8.30;5.50;;;;;;;14.39;73.46;99767.05;102692;277;113947;-55
2023/05/15 09:58:35;;;;;;;6.70;5.80;;;;;;;14.38;73.71;99769.52;102754;277;96887;-57
2023/05/15 10:01:16;;;;;;;6.60;5.90;;;;;;;14.35;74.03;99767.77;102726;277;98011;-60
2023/05/15 10:04:05;;;;;;;8.30;6.20;;;;;;;14.46;74.11;99765.54;102712;276;119838;-56
2023/05/15 10:06:49;;;;;;;7.50;6.40;;;;;;;14.55;73.89;99754.16;102739;265;104468;-56
2023/05/15 10:09:32;;;;;;;8.10;5.90;;;;;;;14.61;74.09;99754.48;102746;265;113988;-59
2023/05/15 10:12:10;;;;;;;7.20;6.00;;;;;;;14.63;74.01;99753.14;102751;277;96621;-59
2023/05/15 10:14:45;;;;;;;7.10;5.70;;;;;;;14.61;74.28;99756.83;102771;277;97074;-55
2023/05/15 10:17:22;;;;;;;8.00;5.80;;;;;;;14.51;74.80;99752.00;102738;277;120039;-56
2023/05/15 10:20:08;;;;;;;7.80;6.00;;;;;;;14.38;74.97;99755.07;102758;277;105338;-55
2023/05/15 10:22:53;;;;;;;8.30;6.40;;;;;;;14.21;74.94;99759.19;102791;277;114921;-54
2023/05/15 10:25:44;;;;;;;7.90;6.50;;;;;;;14.20;74.98;99755.77;102822;277;94447;-55
2023/05/15 10:28:27;;;;;;;8.50;6.90;;;;;;;14.14;74.87;99754.41;102765;277;97754;-55
2023/05/15 10:31:18;;;;;;;8.50;6.80;;;;;;;14.22;75.10;99748.98;102753;277;120159;-56
2023/05/15 10:34:00;;;;;;;8.30;6.00;;;;;;;14.23;76.86;99753.17;102798;277;105988;-58
2023/05/15 10:36:44;;;;;;;10.10;6.10;;;;;;;14.13;76.35;99758.49;102725;277;113135;-58
2023/05/15 10:39:30;;;;;;;8.60;6.70;;;;;;;14.27;76.47;99768.39;102564;277;95847;-57
2023/05/15 10:42:15;;;;;;;7.10;6.40;;;;;;;14.25;76.77;99770.63;102763;277;98125;-58
2023/05/15 10:45:02;;;;;;;7.50;6.40;;;;;;;14.23;76.29;99762.88;102775;277;120441;-60
2023/05/15 10:47:45;;;;;;;6.90;6.00;;;;;;;14.29;76.69;99758.74;102770;277;104160;-60
2023/05/15 10:50:23;;;;;;;14.60;7.10;;;;;;;14.41;76.72;99757.50;102777;277;112746;-55
2023/05/15 10:53:09;;;;;;;7.20;6.10;;;;;;;14.36;76.69;99753.36;102727;277;96653;-56
2023/05/15 10:55:48;;;;;;;8.10;6.50;;;;;;;14.35;76.80;99750.02;102735;277;96683;-59
2023/05/15 10:58:31;;;;;;;6.80;5.90;;;;;;;14.46;77.01;99749.35;102725;277;119537;-59
2023/05/15 11:01:27;;;;;;;6.50;5.60;;;;;;;14.50;76.71;99746.25;102739;277;106328;-55
2023/05/15 11:04:25;;;;;;;7.30;5.70;;;;;;;14.44;76.96;99747.45;102738;277;114667;-59
2023/05/15 11:07:17;;;;;;;7.30;6.20;;;;;;;14.43;77.02;99746.66;102690;277;96108;-60
2023/05/15 11:09:58;;;;;;;7.50;5.80;;;;;;;14.53;76.65;99741.60;102747;269;96510;-53
2023/05/15 11:13:01;;;;;;;8.20;6.30;;;;;;;14.55;76.82;99738.34;102734;277;118748;-54
2023/05/15 11:15:46;;;;;;;7.20;6.00;;;;;;;14.51;76.69;99738.73;102789;277;105843;-58
2023/05/15 11:18:26;;;;;;;7.60;5.70;;;;;;;14.40;76.83;99741.58;102727;277;113175;-60
2023/05/15 11:21:22;;;;;;;6.00;5.40;;;;;;;14.34;77.21;99743.77;102512;279;97005;-58
2023/05/15 11:24:12;;;;;;;8.10;6.30;;;;;;;14.25;77.67;99746.55;102749;277;97423;-55
2023/05/15 11:27:00;;;;;;;7.10;5.20;;;;;;;14.08;78.35;99749.62;102728;277;119760;-57
2023/05/15 11:30:01;;;;;;;7.20;6.00;;;;;;;14.00;78.68;99742.27;102724;277;105586;-55
2023/05/15 11:32:57;;;;;;;6.10;5.50;;;;;;;14.03;78.26;99738.31;102620;278;113905;-55
2023/05/15 11:35:37;;;;;;;6.90;6.20;;;;;;;14.09;78.53;99736.38;102629;278;96448;-55
2023/05/15 11:38:27;;;;;;;6.30;5.50;;;;;;;14.08;78.81;99730.55;102670;278;97629;-55
2023/05/15 11:41:02;;;;;;;4.80;4.30;;;;;;;14.07;79.43;99721.05;102638;277;120603;-55
2023/05/15 11:43:41;;;;;;;5.70;4.50;;;;;;;14.11;79.40;99716.40;102580;278;105791;-56
2023/05/15 11:46:18;;;;;;;5.20;4.30;;;;;;;14.09;79.64;99719.50;102612;278;113577;-54
2023/05/15 11:49:00;;;;;;;7.00;5.10;;;;;;;14.07;79.93;99719.58;102636;278;95832;-55
2023/05/15 11:51:42;;;;;;;5.30;4.50;;;;;;;14.12;79.52;99718.77;102651;278;96497;-56
2023/05/15 11:54:25;;;;;;;5.90;4.80;;;;;;;14.07;79.98;99713.48;102632;278;119996;-59
2023/05/15 11:57:11;;;;;;;6.00;4.50;;;;;;;14.10;80.61;99715.52;102618;278;104647;-59
2023/05/15 11:59:49;;;;;;;5.40;4.90;;;;;;;14.18;80.09;99710.62;102624;278;114865;-55
2023/05/15 12:02:27;;;;;;;6.30;5.00;;;;;;;14.25;80.33;99706.02;102550;278;97066;-55
2023/05/15 12:05:06;;;;;;;4.60;4.20;;;;;;;14.22;80.35;99708.93;102625;278;96682;-59
2023/05/15 12:07:45;;;;;;;5.00;4.10;;;;;;;14.24;80.24;99704.81;102589;278;119276;-59
2023/05/15 12:10:26;;;;;;;4.90;4.40;;;;;;;14.19;80.37;99702.45;102588;278;105071;-58
2023/05/15 12:13:04;;;;;;;5.60;4.40;;;;;;;14.16;80.49;99700.86;102598;278;113717;-58
2023/05/15 12:15:42;;;;;;;5.00;4.60;;;;;;;14.17;80.76;99698.70;102584;278;96757;-55
2023/05/15 12:18:17;;;;;;;5.20;4.70;;;;;;;14.15;80.54;99699.83;102568;278;97745;-55
2023/05/15 12:20:57;;;;;;;4.70;4.10;;;;;;;14.10;80.73;99692.89;102552;278;119831;-59
2023/05/15 12:23:36;;;;;;;4.90;3.80;;;;;;;14.18;81.07;99693.23;102587;278;105494;-57
2023/05/15 12:26:16;;;;;;;4.70;4.30;;;;;;;14.14;80.93;99695.58;102537;278;114671;-58
2023/05/15 12:28:53;;;;;;;4.80;4.40;;;;;;;14.13;81.21;99701.79;102464;279;95671;-58
2023/05/15 12:31:32;;;;;;;4.60;4.20;;;;;;;14.12;81.24;99696.40;102630;278;96752;-59
2023/05/15 12:34:14;;;;;;;5.20;4.60;;;;;;;14.16;81.17;99689.29;102592;278;119332;-55
2023/05/15 12:36:58;;;;;;;4.40;4.00;;;;;;;14.12;81.42;99690.39;102623;278;106078;-55
2023/05/15 12:39:36;;;;;;;5.00;4.30;;;;;;;14.14;81.33;99692.20;102629;278;114263;-55